sensor_id;sensor_type;location;lat;lon;timestamp;P1;durP1;ratioP1;P2;durP2;ratioP2
39410;SDS011;26579;43.238;23.124;2023-12-07T00:00:30;28.38;;;14.25;;
39410;SDS011;26579;43.238;23.124;2023-12-07T00:02:56;28.65;;;13.57;;
39410;SDS011;26579;43.238;23.124;2023-12-07T00:05:22;30.25;;;14.15;;
39410;SDS011;26579;43.238;23.124;2023-12-07T00:07:47;37.58;;;18.13;;
39410;SDS011;26579;43.238;23.124;2023-12-07T00:10:13;41.40;;;19.30;;
39410;SDS011;26579;43.238;23.124;2023-12-07T00:12:38;33.80;;;17.05;;
39410;SDS011;26579;43.238;23.124;2023-12-07T00:15:04;41.70;;;19.58;;
39410;SDS011;26579;43.238;23.124;2023-12-07T00:17:31;33.38;;;15.30;;
39410;SDS011;26579;43.238;23.124;2023-12-07T00:19:56;39.25;;;17.00;;
39410;SDS011;26579;43.238;23.124;2023-12-07T00:22:22;35.55;;;15.13;;
39410;SDS011;26579;43.238;23.124;2023-12-07T00:24:47;33.85;;;15.05;;
39410;SDS011;26579;43.238;23.124;2023-12-07T00:27:13;32.13;;;14.30;;
39410;SDS011;26579;43.238;23.124;2023-12-07T00:29:39;35.85;;;17.42;;
39410;SDS011;26579;43.238;23.124;2023-12-07T00:32:04;32.72;;;16.27;;
39410;SDS011;26579;43.238;23.124;2023-12-07T00:34:30;39.03;;;16.92;;
39410;SDS011;26579;43.238;23.124;2023-12-07T00:36:56;37.75;;;16.30;;
39410;SDS011;26579;43.238;23.124;2023-12-07T00:39:21;42.72;;;17.55;;
39410;SDS011;26579;43.238;23.124;2023-12-07T00:41:47;36.88;;;17.23;;
39410;SDS011;26579;43.238;23.124;2023-12-07T00:44:13;32.20;;;16.73;;
39410;SDS011;26579;43.238;23.124;2023-12-07T00:46:40;34.53;;;16.77;;
39410;SDS011;26579;43.238;23.124;2023-12-07T00:49:05;30.67;;;14.65;;
39410;SDS011;26579;43.238;23.124;2023-12-07T00:51:31;27.35;;;12.57;;
39410;SDS011;26579;43.238;23.124;2023-12-07T00:53:57;28.48;;;13.68;;
39410;SDS011;26579;43.238;23.124;2023-12-07T00:56:22;28.10;;;13.80;;
39410;SDS011;26579;43.238;23.124;2023-12-07T00:58:48;30.45;;;15.38;;
39410;SDS011;26579;43.238;23.124;2023-12-07T01:01:14;31.60;;;15.25;;
39410;SDS011;26579;43.238;23.124;2023-12-07T01:03:39;27.95;;;13.48;;
39410;SDS011;26579;43.238;23.124;2023-12-07T01:06:05;23.55;;;11.20;;
39410;SDS011;26579;43.238;23.124;2023-12-07T01:08:31;22.10;;;10.85;;
39410;SDS011;26579;43.238;23.124;2023-12-07T01:10:56;27.08;;;11.45;;
39410;SDS011;26579;43.238;23.124;2023-12-07T01:13:22;26.30;;;12.30;;
39410;SDS011;26579;43.238;23.124;2023-12-07T01:15:48;20.20;;;10.77;;
39410;SDS011;26579;43.238;23.124;2023-12-07T01:18:13;18.73;;;8.95;;
39410;SDS011;26579;43.238;23.124;2023-12-07T01:20:39;18.70;;;9.07;;
39410;SDS011;26579;43.238;23.124;2023-12-07T01:23:05;20.55;;;9.20;;
39410;SDS011;26579;43.238;23.124;2023-12-07T01:25:30;18.02;;;9.75;;
39410;SDS011;26579;43.238;23.124;2023-12-07T01:27:56;17.00;;;8.48;;
39410;SDS011;26579;43.238;23.124;2023-12-07T01:30:21;16.58;;;9.07;;
39410;SDS011;26579;43.238;23.124;2023-12-07T01:32:47;16.88;;;8.02;;
39410;SDS011;26579;43.238;23.124;2023-12-07T01:35:13;18.33;;;9.02;;
39410;SDS011;26579;43.238;23.124;2023-12-07T01:37:38;20.00;;;10.18;;
39410;SDS011;26579;43.238;23.124;2023-12-07T01:40:04;23.88;;;12.02;;
39410;SDS011;26579;43.238;23.124;2023-12-07T01:42:31;23.27;;;10.95;;
39410;SDS011;26579;43.238;23.124;2023-12-07T01:44:56;23.83;;;10.85;;
39410;SDS011;26579;43.238;23.124;2023-12-07T01:47:22;34.15;;;14.98;;
39410;SDS011;26579;43.238;23.124;2023-12-07T01:49:48;37.63;;;17.20;;
39410;SDS011;26579;43.238;23.124;2023-12-07T01:52:13;51.97;;;23.02;;
39410;SDS011;26579;43.238;23.124;2023-12-07T01:54:39;47.45;;;21.38;;
39410;SDS011;26579;43.238;23.124;2023-12-07T01:57:05;43.13;;;18.48;;
39410;SDS011;26579;43.238;23.124;2023-12-07T01:59:32;50.80;;;24.77;;
39410;SDS011;26579;43.238;23.124;2023-12-07T02:01:58;57.08;;;23.45;;
39410;SDS011;26579;43.238;23.124;2023-12-07T02:04:24;49.03;;;23.35;;
39410;SDS011;26579;43.238;23.124;2023-12-07T02:06:50;50.78;;;22.88;;
39410;SDS011;26579;43.238;23.124;2023-12-07T02:09:19;54.42;;;24.92;;
39410;SDS011;26579;43.238;23.124;2023-12-07T02:11:44;48.72;;;23.00;;
39410;SDS011;26579;43.238;23.124;2023-12-07T02:14:11;46.45;;;22.60;;
39410;SDS011;26579;43.238;23.124;2023-12-07T02:16:45;38.55;;;18.40;;
39410;SDS011;26579;43.238;23.124;2023-12-07T02:22:00;42.47;;;21.83;;
39410;SDS011;26579;43.238;23.124;2023-12-07T02:24:31;43.75;;;21.25;;
39410;SDS011;26579;43.238;23.124;2023-12-07T02:26:59;47.75;;;20.73;;
39410;SDS011;26579;43.238;23.124;2023-12-07T02:29:24;46.90;;;21.48;;
39410;SDS011;26579;43.238;23.124;2023-12-07T02:31:50;48.65;;;22.52;;
39410;SDS011;26579;43.238;23.124;2023-12-07T02:34:16;44.33;;;21.42;;
39410;SDS011;26579;43.238;23.124;2023-12-07T02:36:42;49.25;;;21.70;;
39410;SDS011;26579;43.238;23.124;2023-12-07T02:39:09;49.35;;;23.60;;
39410;SDS011;26579;43.238;23.124;2023-12-07T02:41:35;48.58;;;22.38;;
39410;SDS011;26579;43.238;23.124;2023-12-07T02:44:02;42.88;;;23.25;;
39410;SDS011;26579;43.238;23.124;2023-12-07T02:46:28;45.90;;;23.00;;
39410;SDS011;26579;43.238;23.124;2023-12-07T02:48:53;47.33;;;21.63;;
39410;SDS011;26579;43.238;23.124;2023-12-07T02:51:19;49.22;;;22.77;;
39410;SDS011;26579;43.238;23.124;2023-12-07T02:53:45;48.28;;;22.63;;
39410;SDS011;26579;43.238;23.124;2023-12-07T02:56:10;42.47;;;20.65;;
39410;SDS011;26579;43.238;23.124;2023-12-07T02:58:36;44.72;;;21.75;;
39410;SDS011;26579;43.238;23.124;2023-12-07T03:01:02;41.63;;;20.83;;
39410;SDS011;26579;43.238;23.124;2023-12-07T03:03:27;43.88;;;20.38;;
39410;SDS011;26579;43.238;23.124;2023-12-07T03:05:53;40.92;;;19.38;;
39410;SDS011;26579;43.238;23.124;2023-12-07T03:08:18;42.05;;;19.58;;
39410;SDS011;26579;43.238;23.124;2023-12-07T03:10:44;43.33;;;19.23;;
39410;SDS011;26579;43.238;23.124;2023-12-07T03:13:10;46.15;;;19.25;;
39410;SDS011;26579;43.238;23.124;2023-12-07T03:15:35;51.28;;;22.58;;
39410;SDS011;26579;43.238;23.124;2023-12-07T03:18:01;44.63;;;18.90;;
39410;SDS011;26579;43.238;23.124;2023-12-07T03:20:27;46.95;;;21.10;;
39410;SDS011;26579;43.238;23.124;2023-12-07T03:22:52;50.80;;;21.77;;
39410;SDS011;26579;43.238;23.124;2023-12-07T03:25:18;41.17;;;19.90;;
39410;SDS011;26579;43.238;23.124;2023-12-07T03:27:43;46.75;;;21.70;;
39410;SDS011;26579;43.238;23.124;2023-12-07T03:30:09;39.42;;;20.85;;
39410;SDS011;26579;43.238;23.124;2023-12-07T03:32:35;41.03;;;21.58;;
39410;SDS011;26579;43.238;23.124;2023-12-07T03:35:01;47.88;;;21.60;;
39410;SDS011;26579;43.238;23.124;2023-12-07T03:37:26;51.13;;;23.35;;
39410;SDS011;26579;43.238;23.124;2023-12-07T03:39:52;51.80;;;24.33;;
39410;SDS011;26579;43.238;23.124;2023-12-07T03:42:17;51.28;;;24.50;;
39410;SDS011;26579;43.238;23.124;2023-12-07T03:44:43;55.92;;;25.52;;
39410;SDS011;26579;43.238;23.124;2023-12-07T03:47:09;58.95;;;27.17;;
39410;SDS011;26579;43.238;23.124;2023-12-07T03:49:34;51.17;;;25.02;;
39410;SDS011;26579;43.238;23.124;2023-12-07T03:52:00;57.42;;;25.95;;
39410;SDS011;26579;43.238;23.124;2023-12-07T03:54:26;53.42;;;25.33;;
39410;SDS011;26579;43.238;23.124;2023-12-07T03:56:51;60.22;;;28.92;;
39410;SDS011;26579;43.238;23.124;2023-12-07T03:59:17;59.00;;;26.85;;
39410;SDS011;26579;43.238;23.124;2023-12-07T04:01:43;55.80;;;25.65;;
39410;SDS011;26579;43.238;23.124;2023-12-07T04:04:08;52.15;;;26.00;;
39410;SDS011;26579;43.238;23.124;2023-12-07T04:06:34;48.38;;;23.48;;
39410;SDS011;26579;43.238;23.124;2023-12-07T04:08:59;46.85;;;23.40;;
39410;SDS011;26579;43.238;23.124;2023-12-07T04:11:25;50.58;;;23.85;;
39410;SDS011;26579;43.238;23.124;2023-12-07T04:13:51;54.05;;;23.17;;
39410;SDS011;26579;43.238;23.124;2023-12-07T04:16:16;51.75;;;25.17;;
39410;SDS011;26579;43.238;23.124;2023-12-07T04:18:42;53.22;;;23.95;;
39410;SDS011;26579;43.238;23.124;2023-12-07T04:21:08;52.13;;;25.17;;
39410;SDS011;26579;43.238;23.124;2023-12-07T04:23:33;44.13;;;22.70;;
39410;SDS011;26579;43.238;23.124;2023-12-07T04:25:59;46.67;;;21.92;;
39410;SDS011;26579;43.238;23.124;2023-12-07T04:28:25;41.17;;;20.52;;
39410;SDS011;26579;43.238;23.124;2023-12-07T04:30:50;38.47;;;19.15;;
39410;SDS011;26579;43.238;23.124;2023-12-07T04:33:16;43.63;;;20.52;;
39410;SDS011;26579;43.238;23.124;2023-12-07T04:35:42;45.58;;;21.92;;
39410;SDS011;26579;43.238;23.124;2023-12-07T04:38:07;50.15;;;23.55;;
39410;SDS011;26579;43.238;23.124;2023-12-07T04:40:33;46.15;;;22.58;;
39410;SDS011;26579;43.238;23.124;2023-12-07T04:42:59;44.45;;;22.65;;
39410;SDS011;26579;43.238;23.124;2023-12-07T04:45:24;48.10;;;23.25;;
39410;SDS011;26579;43.238;23.124;2023-12-07T04:47:50;42.25;;;19.38;;
39410;SDS011;26579;43.238;23.124;2023-12-07T04:50:16;44.53;;;20.45;;
39410;SDS011;26579;43.238;23.124;2023-12-07T04:52:41;41.92;;;21.30;;
39410;SDS011;26579;43.238;23.124;2023-12-07T04:55:07;122.47;;;55.75;;
39410;SDS011;26579;43.238;23.124;2023-12-07T04:57:35;56.00;;;27.55;;
39410;SDS011;26579;43.238;23.124;2023-12-07T05:00:04;64.40;;;32.53;;
39410;SDS011;26579;43.238;23.124;2023-12-07T05:02:30;51.53;;;27.52;;
39410;SDS011;26579;43.238;23.124;2023-12-07T05:04:55;60.25;;;29.65;;
39410;SDS011;26579;43.238;23.124;2023-12-07T05:07:21;55.63;;;27.42;;
39410;SDS011;26579;43.238;23.124;2023-12-07T05:09:47;59.88;;;29.52;;
39410;SDS011;26579;43.238;23.124;2023-12-07T05:12:12;88.78;;;40.90;;
39410;SDS011;26579;43.238;23.124;2023-12-07T05:14:38;69.70;;;32.47;;
39410;SDS011;26579;43.238;23.124;2023-12-07T05:17:03;79.70;;;38.83;;
39410;SDS011;26579;43.238;23.124;2023-12-07T05:19:29;60.95;;;29.77;;
39410;SDS011;26579;43.238;23.124;2023-12-07T05:21:55;53.97;;;25.30;;
39410;SDS011;26579;43.238;23.124;2023-12-07T05:24:20;51.50;;;24.38;;
39410;SDS011;26579;43.238;23.124;2023-12-07T05:26:46;56.42;;;26.63;;
39410;SDS011;26579;43.238;23.124;2023-12-07T05:29:12;59.85;;;29.10;;
39410;SDS011;26579;43.238;23.124;2023-12-07T05:31:38;62.40;;;31.40;;
39410;SDS011;26579;43.238;23.124;2023-12-07T05:34:04;65.28;;;31.25;;
39410;SDS011;26579;43.238;23.124;2023-12-07T05:36:30;65.78;;;33.80;;
39410;SDS011;26579;43.238;23.124;2023-12-07T05:38:56;69.93;;;34.03;;
39410;SDS011;26579;43.238;23.124;2023-12-07T05:41:22;72.05;;;36.67;;
39410;SDS011;26579;43.238;23.124;2023-12-07T05:43:48;76.85;;;37.28;;
39410;SDS011;26579;43.238;23.124;2023-12-07T05:46:14;72.13;;;35.75;;
39410;SDS011;26579;43.238;23.124;2023-12-07T05:48:40;68.47;;;33.60;;
39410;SDS011;26579;43.238;23.124;2023-12-07T05:51:05;75.05;;;36.03;;
39410;SDS011;26579;43.238;23.124;2023-12-07T05:53:36;69.43;;;34.33;;
39410;SDS011;26579;43.238;23.124;2023-12-07T05:56:03;64.20;;;32.22;;
39410;SDS011;26579;43.238;23.124;2023-12-07T05:58:28;65.45;;;31.50;;
39410;SDS011;26579;43.238;23.124;2023-12-07T06:00:54;69.40;;;33.72;;
39410;SDS011;26579;43.238;23.124;2023-12-07T06:03:20;58.83;;;29.13;;
39410;SDS011;26579;43.238;23.124;2023-12-07T06:05:45;55.95;;;28.85;;
39410;SDS011;26579;43.238;23.124;2023-12-07T06:08:11;59.00;;;31.33;;
39410;SDS011;26579;43.238;23.124;2023-12-07T06:10:36;66.93;;;33.97;;
39410;SDS011;26579;43.238;23.124;2023-12-07T06:13:02;71.18;;;37.90;;
39410;SDS011;26579;43.238;23.124;2023-12-07T06:15:28;86.18;;;46.40;;
39410;SDS011;26579;43.238;23.124;2023-12-07T06:17:54;94.60;;;48.15;;
39410;SDS011;26579;43.238;23.124;2023-12-07T06:20:20;105.70;;;51.85;;
39410;SDS011;26579;43.238;23.124;2023-12-07T06:22:45;107.32;;;55.58;;
39410;SDS011;26579;43.238;23.124;2023-12-07T06:25:11;112.85;;;61.10;;
39410;SDS011;26579;43.238;23.124;2023-12-07T06:27:37;108.85;;;58.92;;
39410;SDS011;26579;43.238;23.124;2023-12-07T06:30:04;112.53;;;58.00;;
39410;SDS011;26579;43.238;23.124;2023-12-07T06:32:30;110.28;;;55.38;;
39410;SDS011;26579;43.238;23.124;2023-12-07T06:34:56;121.78;;;59.17;;
39410;SDS011;26579;43.238;23.124;2023-12-07T06:37:22;114.03;;;59.40;;
39410;SDS011;26579;43.238;23.124;2023-12-07T06:39:47;107.60;;;57.50;;
39410;SDS011;26579;43.238;23.124;2023-12-07T06:42:13;109.20;;;57.38;;
39410;SDS011;26579;43.238;23.124;2023-12-07T06:44:39;96.07;;;51.90;;
39410;SDS011;26579;43.238;23.124;2023-12-07T06:47:04;82.38;;;44.17;;
39410;SDS011;26579;43.238;23.124;2023-12-07T06:49:30;84.68;;;42.10;;
39410;SDS011;26579;43.238;23.124;2023-12-07T06:51:56;59.33;;;31.98;;
39410;SDS011;26579;43.238;23.124;2023-12-07T06:54:22;52.15;;;25.75;;
39410;SDS011;26579;43.238;23.124;2023-12-07T06:56:47;55.70;;;27.15;;
39410;SDS011;26579;43.238;23.124;2023-12-07T06:59:13;47.53;;;24.30;;
39410;SDS011;26579;43.238;23.124;2023-12-07T07:01:39;42.92;;;23.30;;
39410;SDS011;26579;43.238;23.124;2023-12-07T07:04:05;45.83;;;24.48;;
39410;SDS011;26579;43.238;23.124;2023-12-07T07:06:31;54.00;;;29.20;;
39410;SDS011;26579;43.238;23.124;2023-12-07T07:08:56;45.17;;;25.20;;
39410;SDS011;26579;43.238;23.124;2023-12-07T07:11:22;53.45;;;31.10;;
39410;SDS011;26579;43.238;23.124;2023-12-07T07:13:48;55.25;;;31.38;;
39410;SDS011;26579;43.238;23.124;2023-12-07T07:16:13;62.60;;;35.88;;
39410;SDS011;26579;43.238;23.124;2023-12-07T07:18:39;65.72;;;38.78;;
39410;SDS011;26579;43.238;23.124;2023-12-07T07:21:08;73.22;;;40.22;;
39410;SDS011;26579;43.238;23.124;2023-12-07T07:23:35;73.80;;;42.28;;
39410;SDS011;26579;43.238;23.124;2023-12-07T07:26:00;84.28;;;46.67;;
39410;SDS011;26579;43.238;23.124;2023-12-07T07:28:26;95.68;;;51.95;;
39410;SDS011;26579;43.238;23.124;2023-12-07T07:30:52;98.97;;;49.60;;
39410;SDS011;26579;43.238;23.124;2023-12-07T07:33:18;97.93;;;53.45;;
39410;SDS011;26579;43.238;23.124;2023-12-07T07:35:43;97.85;;;51.97;;
39410;SDS011;26579;43.238;23.124;2023-12-07T07:38:09;116.60;;;58.90;;
39410;SDS011;26579;43.238;23.124;2023-12-07T07:40:34;112.13;;;58.95;;
39410;SDS011;26579;43.238;23.124;2023-12-07T07:43:00;101.55;;;53.83;;
39410;SDS011;26579;43.238;23.124;2023-12-07T07:45:26;95.72;;;50.40;;
39410;SDS011;26579;43.238;23.124;2023-12-07T07:47:51;85.95;;;45.50;;
39410;SDS011;26579;43.238;23.124;2023-12-07T07:50:17;82.68;;;46.38;;
39410;SDS011;26579;43.238;23.124;2023-12-07T07:52:43;81.93;;;44.58;;
39410;SDS011;26579;43.238;23.124;2023-12-07T07:55:09;76.32;;;44.65;;
39410;SDS011;26579;43.238;23.124;2023-12-07T07:57:36;70.82;;;42.75;;
39410;SDS011;26579;43.238;23.124;2023-12-07T08:00:02;70.63;;;39.60;;
39410;SDS011;26579;43.238;23.124;2023-12-07T08:02:30;67.55;;;36.88;;
39410;SDS011;26579;43.238;23.124;2023-12-07T08:04:56;65.75;;;37.90;;
39410;SDS011;26579;43.238;23.124;2023-12-07T08:07:21;60.45;;;33.10;;
39410;SDS011;26579;43.238;23.124;2023-12-07T08:09:47;68.80;;;37.17;;
39410;SDS011;26579;43.238;23.124;2023-12-07T08:12:12;71.00;;;38.08;;
39410;SDS011;26579;43.238;23.124;2023-12-07T08:14:38;76.95;;;40.47;;
39410;SDS011;26579;43.238;23.124;2023-12-07T08:17:04;80.43;;;46.22;;
39410;SDS011;26579;43.238;23.124;2023-12-07T08:19:29;89.28;;;47.63;;
39410;SDS011;26579;43.238;23.124;2023-12-07T08:21:55;90.00;;;45.85;;
39410;SDS011;26579;43.238;23.124;2023-12-07T08:24:21;89.18;;;46.95;;
39410;SDS011;26579;43.238;23.124;2023-12-07T08:26:46;81.47;;;44.05;;
39410;SDS011;26579;43.238;23.124;2023-12-07T08:29:12;85.25;;;43.53;;
39410;SDS011;26579;43.238;23.124;2023-12-07T08:31:38;73.53;;;38.25;;
39410;SDS011;26579;43.238;23.124;2023-12-07T08:34:05;77.22;;;38.90;;
39410;SDS011;26579;43.238;23.124;2023-12-07T08:36:30;87.82;;;46.35;;
39410;SDS011;26579;43.238;23.124;2023-12-07T08:38:56;88.90;;;51.22;;
39410;SDS011;26579;43.238;23.124;2023-12-07T08:41:22;82.95;;;45.63;;
39410;SDS011;26579;43.238;23.124;2023-12-07T08:43:47;76.82;;;42.28;;
39410;SDS011;26579;43.238;23.124;2023-12-07T08:46:13;67.85;;;38.80;;
39410;SDS011;26579;43.238;23.124;2023-12-07T08:48:39;69.03;;;38.80;;
39410;SDS011;26579;43.238;23.124;2023-12-07T08:51:04;73.80;;;42.38;;
39410;SDS011;26579;43.238;23.124;2023-12-07T08:53:30;74.18;;;40.78;;
39410;SDS011;26579;43.238;23.124;2023-12-07T08:55:56;74.57;;;41.45;;
39410;SDS011;26579;43.238;23.124;2023-12-07T08:58:21;71.22;;;37.53;;
39410;SDS011;26579;43.238;23.124;2023-12-07T09:00:47;68.05;;;36.03;;
39410;SDS011;26579;43.238;23.124;2023-12-07T09:03:12;63.83;;;35.53;;
39410;SDS011;26579;43.238;23.124;2023-12-07T09:05:38;67.75;;;37.42;;
39410;SDS011;26579;43.238;23.124;2023-12-07T09:08:04;71.28;;;38.75;;
39410;SDS011;26579;43.238;23.124;2023-12-07T09:10:29;80.00;;;44.78;;
39410;SDS011;26579;43.238;23.124;2023-12-07T09:12:55;78.97;;;44.50;;
39410;SDS011;26579;43.238;23.124;2023-12-07T09:15:21;54.15;;;32.28;;
39410;SDS011;26579;43.238;23.124;2023-12-07T09:17:46;56.17;;;32.15;;
39410;SDS011;26579;43.238;23.124;2023-12-07T09:20:12;58.95;;;33.47;;
39410;SDS011;26579;43.238;23.124;2023-12-07T09:22:39;48.22;;;26.33;;
39410;SDS011;26579;43.238;23.124;2023-12-07T09:25:06;47.05;;;26.25;;
39410;SDS011;26579;43.238;23.124;2023-12-07T09:27:32;51.55;;;29.13;;
39410;SDS011;26579;43.238;23.124;2023-12-07T09:29:58;54.78;;;29.83;;
39410;SDS011;26579;43.238;23.124;2023-12-07T09:32:23;57.35;;;31.85;;
39410;SDS011;26579;43.238;23.124;2023-12-07T09:34:49;59.90;;;33.13;;
39410;SDS011;26579;43.238;23.124;2023-12-07T09:37:14;61.60;;;36.58;;
39410;SDS011;26579;43.238;23.124;2023-12-07T09:39:40;69.45;;;38.95;;
39410;SDS011;26579;43.238;23.124;2023-12-07T09:42:06;59.22;;;34.22;;
39410;SDS011;26579;43.238;23.124;2023-12-07T09:44:31;56.00;;;33.85;;
39410;SDS011;26579;43.238;23.124;2023-12-07T09:46:57;40.25;;;23.25;;
39410;SDS011;26579;43.238;23.124;2023-12-07T09:49:24;26.23;;;15.27;;
39410;SDS011;26579;43.238;23.124;2023-12-07T09:51:50;31.10;;;17.15;;
39410;SDS011;26579;43.238;23.124;2023-12-07T09:54:16;48.50;;;27.42;;
39410;SDS011;26579;43.238;23.124;2023-12-07T09:56:43;56.75;;;30.67;;
39410;SDS011;26579;43.238;23.124;2023-12-07T09:59:09;48.53;;;27.05;;
39410;SDS011;26579;43.238;23.124;2023-12-07T10:01:34;50.45;;;26.50;;
39410;SDS011;26579;43.238;23.124;2023-12-07T10:04:16;48.13;;;28.15;;
39410;SDS011;26579;43.238;23.124;2023-12-07T10:06:44;45.88;;;26.73;;
39410;SDS011;26579;43.238;23.124;2023-12-07T10:09:10;57.65;;;32.88;;
39410;SDS011;26579;43.238;23.124;2023-12-07T10:11:37;54.90;;;31.80;;
39410;SDS011;26579;43.238;23.124;2023-12-07T10:14:04;61.22;;;35.05;;
39410;SDS011;26579;43.238;23.124;2023-12-07T10:16:31;80.20;;;43.20;;
39410;SDS011;26579;43.238;23.124;2023-12-07T10:18:57;73.07;;;40.22;;
39410;SDS011;26579;43.238;23.124;2023-12-07T10:21:39;52.65;;;31.65;;
39410;SDS011;26579;43.238;23.124;2023-12-07T10:24:04;58.00;;;31.98;;
39410;SDS011;26579;43.238;23.124;2023-12-07T10:26:30;77.70;;;40.97;;
39410;SDS011;26579;43.238;23.124;2023-12-07T10:28:56;68.55;;;38.65;;
39410;SDS011;26579;43.238;23.124;2023-12-07T10:31:22;60.00;;;36.38;;
39410;SDS011;26579;43.238;23.124;2023-12-07T10:33:51;48.00;;;27.67;;
39410;SDS011;26579;43.238;23.124;2023-12-07T10:36:17;38.30;;;19.30;;
39410;SDS011;26579;43.238;23.124;2023-12-07T10:38:43;21.00;;;13.27;;
39410;SDS011;26579;43.238;23.124;2023-12-07T10:41:09;19.45;;;12.35;;
39410;SDS011;26579;43.238;23.124;2023-12-07T10:43:37;27.58;;;18.42;;
39410;SDS011;26579;43.238;23.124;2023-12-07T10:46:07;21.85;;;13.48;;
39410;SDS011;26579;43.238;23.124;2023-12-07T10:48:34;34.50;;;15.68;;
39410;SDS011;26579;43.238;23.124;2023-12-07T10:51:02;23.08;;;12.05;;
39410;SDS011;26579;43.238;23.124;2023-12-07T10:53:40;38.67;;;17.55;;
39410;SDS011;26579;43.238;23.124;2023-12-07T10:56:08;27.35;;;13.18;;
39410;SDS011;26579;43.238;23.124;2023-12-07T10:58:36;27.52;;;15.10;;
39410;SDS011;26579;43.238;23.124;2023-12-07T11:01:04;51.35;;;27.95;;
39410;SDS011;26579;43.238;23.124;2023-12-07T11:03:36;34.88;;;19.90;;
39410;SDS011;26579;43.238;23.124;2023-12-07T11:06:04;19.92;;;11.80;;
39410;SDS011;26579;43.238;23.124;2023-12-07T11:09:04;16.33;;;10.75;;
39410;SDS011;26579;43.238;23.124;2023-12-07T11:11:29;19.90;;;10.75;;
39410;SDS011;26579;43.238;23.124;2023-12-07T11:13:59;20.77;;;11.98;;
39410;SDS011;26579;43.238;23.124;2023-12-07T11:16:29;28.00;;;15.88;;
39410;SDS011;26579;43.238;23.124;2023-12-07T11:18:55;23.15;;;14.35;;
39410;SDS011;26579;43.238;23.124;2023-12-07T11:21:21;23.52;;;14.13;;
39410;SDS011;26579;43.238;23.124;2023-12-07T11:23:47;27.48;;;15.02;;
39410;SDS011;26579;43.238;23.124;2023-12-07T11:26:13;13.25;;;7.22;;
39410;SDS011;26579;43.238;23.124;2023-12-07T11:28:40;16.88;;;10.13;;
39410;SDS011;26579;43.238;23.124;2023-12-07T11:31:06;19.48;;;11.18;;
39410;SDS011;26579;43.238;23.124;2023-12-07T11:33:33;20.90;;;11.70;;
39410;SDS011;26579;43.238;23.124;2023-12-07T11:38:27;11.43;;;6.85;;
39410;SDS011;26579;43.238;23.124;2023-12-07T11:40:53;12.00;;;6.80;;
39410;SDS011;26579;43.238;23.124;2023-12-07T11:45:59;10.68;;;6.35;;
39410;SDS011;26579;43.238;23.124;2023-12-07T11:48:26;13.27;;;7.68;;
39410;SDS011;26579;43.238;23.124;2023-12-07T11:51:02;16.60;;;8.27;;
39410;SDS011;26579;43.238;23.124;2023-12-07T11:53:33;11.15;;;6.50;;
39410;SDS011;26579;43.238;23.124;2023-12-07T11:56:00;15.35;;;8.75;;
39410;SDS011;26579;43.238;23.124;2023-12-07T11:58:29;10.95;;;6.90;;
39410;SDS011;26579;43.238;23.124;2023-12-07T12:00:56;21.52;;;13.45;;
39410;SDS011;26579;43.238;23.124;2023-12-07T12:03:23;18.20;;;12.38;;
39410;SDS011;26579;43.238;23.124;2023-12-07T12:05:49;20.45;;;11.40;;
39410;SDS011;26579;43.238;23.124;2023-12-07T12:08:16;16.63;;;10.07;;
39410;SDS011;26579;43.238;23.124;2023-12-07T12:10:43;14.93;;;10.00;;
39410;SDS011;26579;43.238;23.124;2023-12-07T12:13:09;13.55;;;8.70;;
39410;SDS011;26579;43.238;23.124;2023-12-07T12:15:35;14.90;;;9.80;;
39410;SDS011;26579;43.238;23.124;2023-12-07T12:18:01;13.95;;;8.85;;
39410;SDS011;26579;43.238;23.124;2023-12-07T12:20:27;13.07;;;8.05;;
39410;SDS011;26579;43.238;23.124;2023-12-07T12:22:53;14.77;;;9.23;;
39410;SDS011;26579;43.238;23.124;2023-12-07T12:25:23;25.15;;;15.30;;
39410;SDS011;26579;43.238;23.124;2023-12-07T12:27:54;15.75;;;9.48;;
39410;SDS011;26579;43.238;23.124;2023-12-07T12:30:22;19.52;;;11.57;;
39410;SDS011;26579;43.238;23.124;2023-12-07T12:32:50;9.95;;;6.15;;
39410;SDS011;26579;43.238;23.124;2023-12-07T12:35:19;11.02;;;7.03;;
39410;SDS011;26579;43.238;23.124;2023-12-07T12:37:45;17.35;;;10.75;;
39410;SDS011;26579;43.238;23.124;2023-12-07T12:40:12;8.88;;;5.40;;
39410;SDS011;26579;43.238;23.124;2023-12-07T12:42:39;7.07;;;3.47;;
39410;SDS011;26579;43.238;23.124;2023-12-07T12:45:05;7.53;;;4.30;;
39410;SDS011;26579;43.238;23.124;2023-12-07T12:47:33;6.47;;;4.18;;
39410;SDS011;26579;43.238;23.124;2023-12-07T12:49:59;7.82;;;4.38;;
39410;SDS011;26579;43.238;23.124;2023-12-07T12:52:25;8.57;;;4.45;;
39410;SDS011;26579;43.238;23.124;2023-12-07T12:54:50;8.35;;;4.18;;
39410;SDS011;26579;43.238;23.124;2023-12-07T12:57:17;11.40;;;7.13;;
39410;SDS011;26579;43.238;23.124;2023-12-07T12:59:44;12.23;;;8.52;;
39410;SDS011;26579;43.238;23.124;2023-12-07T13:02:10;13.52;;;8.43;;
39410;SDS011;26579;43.238;23.124;2023-12-07T13:04:36;23.98;;;13.48;;
39410;SDS011;26579;43.238;23.124;2023-12-07T13:07:02;30.15;;;16.73;;
39410;SDS011;26579;43.238;23.124;2023-12-07T13:09:28;35.97;;;19.55;;
39410;SDS011;26579;43.238;23.124;2023-12-07T13:11:54;34.67;;;22.30;;
39410;SDS011;26579;43.238;23.124;2023-12-07T13:14:20;35.15;;;22.40;;
39410;SDS011;26579;43.238;23.124;2023-12-07T13:16:45;38.08;;;22.08;;
39410;SDS011;26579;43.238;23.124;2023-12-07T13:19:11;46.08;;;25.52;;
39410;SDS011;26579;43.238;23.124;2023-12-07T13:21:36;48.90;;;28.48;;
39410;SDS011;26579;43.238;23.124;2023-12-07T13:24:02;50.95;;;27.90;;
39410;SDS011;26579;43.238;23.124;2023-12-07T13:26:28;57.20;;;35.05;;
39410;SDS011;26579;43.238;23.124;2023-12-07T13:28:53;58.58;;;34.67;;
39410;SDS011;26579;43.238;23.124;2023-12-07T13:31:19;67.57;;;37.63;;
39410;SDS011;26579;43.238;23.124;2023-12-07T13:33:44;64.35;;;37.47;;
39410;SDS011;26579;43.238;23.124;2023-12-07T13:36:10;56.63;;;33.83;;
39410;SDS011;26579;43.238;23.124;2023-12-07T13:38:36;59.30;;;34.88;;
39410;SDS011;26579;43.238;23.124;2023-12-07T13:41:01;61.47;;;36.72;;
39410;SDS011;26579;43.238;23.124;2023-12-07T13:43:27;83.18;;;47.78;;
39410;SDS011;26579;43.238;23.124;2023-12-07T13:45:53;77.32;;;46.95;;
39410;SDS011;26579;43.238;23.124;2023-12-07T13:48:18;73.85;;;46.53;;
39410;SDS011;26579;43.238;23.124;2023-12-07T13:50:44;76.03;;;47.42;;
39410;SDS011;26579;43.238;23.124;2023-12-07T13:53:10;77.45;;;48.80;;
39410;SDS011;26579;43.238;23.124;2023-12-07T13:55:36;80.93;;;47.17;;
39410;SDS011;26579;43.238;23.124;2023-12-07T13:58:02;79.05;;;47.92;;
39410;SDS011;26579;43.238;23.124;2023-12-07T14:00:28;74.38;;;47.35;;
39410;SDS011;26579;43.238;23.124;2023-12-07T14:02:54;64.50;;;42.30;;
39410;SDS011;26579;43.238;23.124;2023-12-07T14:05:19;67.10;;;43.38;;
39410;SDS011;26579;43.238;23.124;2023-12-07T14:07:45;77.10;;;45.85;;
39410;SDS011;26579;43.238;23.124;2023-12-07T14:10:11;82.90;;;51.42;;
39410;SDS011;26579;43.238;23.124;2023-12-07T14:12:36;91.80;;;55.67;;